sensor_id;sensor_type;location;lat;lon;timestamp;pressure;altitude;pressure_sealevel;temperature;humidity
50977;BME280;36992;48.200;12.418;2023-07-02T00:01:56;96153.41;;;22.88;49.74
50977;BME280;36992;48.200;12.418;2023-07-02T00:04:22;96134.19;;;22.88;48.73
50977;BME280;36992;48.200;12.418;2023-07-02T00:06:49;96134.59;;;22.90;48.58
50977;BME280;36992;48.200;12.418;2023-07-02T00:09:15;96135.75;;;22.93;48.65
50977;BME280;36992;48.200;12.418;2023-07-02T00:11:43;96138.94;;;22.95;49.25
50977;BME280;36992;48.200;12.418;2023-07-02T00:14:11;96140.88;;;22.98;49.06
50977;BME280;36992;48.200;12.418;2023-07-02T00:16:43;96133.06;;;23.03;47.87
50977;BME280;36992;48.200;12.418;2023-07-02T00:19:11;96138.56;;;23.03;49.30
50977;BME280;36992;48.200;12.418;2023-07-02T00:21:37;96134.63;;;23.04;49.12
50977;BME280;36992;48.200;12.418;2023-07-02T00:24:05;96138.94;;;23.06;48.42
50977;BME280;36992;48.200;12.418;2023-07-02T00:26:32;96133.84;;;23.08;48.22
50977;BME280;36992;48.200;12.418;2023-07-02T00:28:58;96137.00;;;23.10;49.67
50977;BME280;36992;48.200;12.418;2023-07-02T00:31:24;96134.63;;;23.08;48.98
50977;BME280;36992;48.200;12.418;2023-07-02T00:33:52;96135.44;;;23.09;48.24
50977;BME280;36992;48.200;12.418;2023-07-02T00:36:19;96133.06;;;23.07;49.10
50977;BME280;36992;48.200;12.418;2023-07-02T00:38:46;96137.78;;;23.07;49.54
50977;BME280;36992;48.200;12.418;2023-07-02T00:41:13;96133.84;;;23.04;48.96
50977;BME280;36992;48.200;12.418;2023-07-02T00:43:40;96132.25;;;22.99;50.58
50977;BME280;36992;48.200;12.418;2023-07-02T00:46:09;96132.25;;;22.96;49.25
50977;BME280;36992;48.200;12.418;2023-07-02T00:48:38;96132.25;;;22.92;49.88
50977;BME280;36992;48.200;12.418;2023-07-02T00:51:06;96129.50;;;22.92;49.28
50977;BME280;36992;48.200;12.418;2023-07-02T00:53:33;96130.66;;;22.87;48.74
50977;BME280;36992;48.200;12.418;2023-07-02T00:55:59;96136.53;;;22.86;49.75
50977;BME280;36992;48.200;12.418;2023-07-02T00:58:26;96127.91;;;22.84;49.45
50977;BME280;36992;48.200;12.418;2023-07-02T01:00:53;96134.97;;;22.85;50.68
50977;BME280;36992;48.200;12.418;2023-07-02T01:03:21;96139.28;;;22.82;50.66
50977;BME280;36992;48.200;12.418;2023-07-02T01:05:47;96133.38;;;22.80;49.68
50977;BME280;36992;48.200;12.418;2023-07-02T01:08:16;96134.97;;;22.77;49.58
50977;BME280;36992;48.200;12.418;2023-07-02T01:10:42;96145.53;;;22.75;49.93
50977;BME280;36992;48.200;12.418;2023-07-02T01:13:11;96145.13;;;22.73;50.88
50977;BME280;36992;48.200;12.418;2023-07-02T01:15:41;96139.22;;;22.68;49.99
50977;BME280;36992;48.200;12.418;2023-07-02T01:18:09;96141.56;;;22.66;50.50
50977;BME280;36992;48.200;12.418;2023-07-02T01:20:38;96141.56;;;22.62;50.54
50977;BME280;36992;48.200;12.418;2023-07-02T01:23:05;96139.97;;;22.57;50.52
50977;BME280;36992;48.200;12.418;2023-07-02T01:25:31;96141.53;;;22.55;49.33
50977;BME280;36992;48.200;12.418;2023-07-02T01:28:01;96146.63;;;22.53;50.52
50977;BME280;36992;48.200;12.418;2023-07-02T01:30:28;96138.38;;;22.53;50.50
50977;BME280;36992;48.200;12.418;2023-07-02T01:32:54;96136.78;;;22.52;49.79
50977;BME280;36992;48.200;12.418;2023-07-02T01:35:21;96132.44;;;22.50;50.93
50977;BME280;36992;48.200;12.418;2023-07-02T01:37:48;96134.03;;;22.52;51.07
50977;BME280;36992;48.200;12.418;2023-07-02T01:40:16;96137.16;;;22.50;50.17
50977;BME280;36992;48.200;12.418;2023-07-02T01:42:42;96141.47;;;22.47;51.02
50977;BME280;36992;48.200;12.418;2023-07-02T01:45:09;96141.47;;;22.47;50.79
50977;BME280;36992;48.200;12.418;2023-07-02T01:47:36;96142.66;;;22.46;50.20
50977;BME280;36992;48.200;12.418;2023-07-02T01:50:03;96148.50;;;22.45;51.31
50977;BME280;36992;48.200;12.418;2023-07-02T01:52:30;96137.91;;;22.43;50.71
50977;BME280;36992;48.200;12.418;2023-07-02T01:55:00;96147.34;;;22.46;50.14
50977;BME280;36992;48.200;12.418;2023-07-02T01:57:26;96139.47;;;22.44;51.44
50977;BME280;36992;48.200;12.418;2023-07-02T01:59:53;96135.16;;;22.43;50.80
50977;BME280;36992;48.200;12.418;2023-07-02T02:02:19;96145.38;;;22.43;50.97
50977;BME280;36992;48.200;12.418;2023-07-02T02:04:46;96150.06;;;22.42;51.21
50977;BME280;36992;48.200;12.418;2023-07-02T02:07:12;96148.50;;;22.41;51.52
50977;BME280;36992;48.200;12.418;2023-07-02T02:09:39;96151.63;;;22.40;52.05
50977;BME280;36992;48.200;12.418;2023-07-02T02:12:07;96151.63;;;22.40;51.25
50977;BME280;36992;48.200;12.418;2023-07-02T02:14:33;96160.19;;;22.34;52.35
50977;BME280;36992;48.200;12.418;2023-07-02T02:17:00;96166.47;;;22.31;52.20
50977;BME280;36992;48.200;12.418;2023-07-02T02:19:26;96162.53;;;22.29;51.60
50977;BME280;36992;48.200;12.418;2023-07-02T02:21:53;96166.03;;;22.26;52.50
50977;BME280;36992;48.200;12.418;2023-07-02T02:24:19;96157.00;;;22.21;52.82
50977;BME280;36992;48.200;12.418;2023-07-02T02:26:46;96157.00;;;22.18;51.86
50977;BME280;36992;48.200;12.418;2023-07-02T02:29:13;96154.25;;;22.18;51.81
50977;BME280;36992;48.200;12.418;2023-07-02T02:31:40;96150.31;;;22.15;51.93
50977;BME280;36992;48.200;12.418;2023-07-02T02:34:06;96155.00;;;22.15;51.79
50977;BME280;36992;48.200;12.418;2023-07-02T02:36:33;96164.03;;;22.15;53.07
50977;BME280;36992;48.200;12.418;2023-07-02T02:38:59;96166.34;;;22.13;52.42
50977;BME280;36992;48.200;12.418;2023-07-02T02:41:26;96163.19;;;22.11;52.14
50977;BME280;36992;48.200;12.418;2023-07-02T02:43:52;96166.31;;;22.09;51.84
50977;BME280;36992;48.200;12.418;2023-07-02T02:46:23;96170.25;;;22.12;51.71
50977;BME280;36992;48.200;12.418;2023-07-02T02:48:49;96167.88;;;22.07;51.84
50977;BME280;36992;48.200;12.418;2023-07-02T02:51:16;96167.47;;;22.05;52.18
50977;BME280;36992;48.200;12.418;2023-07-02T02:53:43;96174.13;;;22.04;52.60
50977;BME280;36992;48.200;12.418;2023-07-02T02:56:09;96165.47;;;22.02;52.63
50977;BME280;36992;48.200;12.418;2023-07-02T02:58:36;96161.97;;;22.01;52.86
50977;BME280;36992;48.200;12.418;2023-07-02T03:01:02;96166.66;;;22.01;52.39
50977;BME280;36992;48.200;12.418;2023-07-02T03:03:38;96166.28;;;22.02;52.62
50977;BME280;36992;48.200;12.418;2023-07-02T03:06:04;96170.56;;;22.00;52.40
50977;BME280;36992;48.200;12.418;2023-07-02T03:08:31;96168.19;;;21.98;51.44
50977;BME280;36992;48.200;12.418;2023-07-02T03:10:57;96166.25;;;21.99;52.22
50977;BME280;36992;48.200;12.418;2023-07-02T03:13:24;96165.06;;;22.00;51.77
50977;BME280;36992;48.200;12.418;2023-07-02T03:15:50;96174.88;;;22.01;51.23
50977;BME280;36992;48.200;12.418;2023-07-02T03:18:17;96177.63;;;22.01;52.42
50977;BME280;36992;48.200;12.418;2023-07-02T03:20:44;96173.31;;;22.03;51.77
50977;BME280;36992;48.200;12.418;2023-07-02T03:23:11;96177.63;;;22.01;52.23
50977;BME280;36992;48.200;12.418;2023-07-02T03:25:37;96177.22;;;21.99;51.46
50977;BME280;36992;48.200;12.418;2023-07-02T03:28:04;96185.06;;;22.00;52.36
50977;BME280;36992;48.200;12.418;2023-07-02T03:30:30;96188.59;;;22.01;52.26
50977;BME280;36992;48.200;12.418;2023-07-02T03:32:57;96174.09;;;22.00;52.71
50977;BME280;36992;48.200;12.418;2023-07-02T03:35:24;96163.50;;;21.99;52.36
50977;BME280;36992;48.200;12.418;2023-07-02T03:37:52;96167.81;;;22.00;52.03
50977;BME280;36992;48.200;12.418;2023-07-02T03:40:18;96173.28;;;21.96;52.17
50977;BME280;36992;48.200;12.418;2023-07-02T03:42:44;96165.84;;;21.96;52.35
50977;BME280;36992;48.200;12.418;2023-07-02T03:45:11;96172.47;;;21.95;52.28
50977;BME280;36992;48.200;12.418;2023-07-02T03:47:37;96176.03;;;21.96;52.54
50977;BME280;36992;48.200;12.418;2023-07-02T03:50:04;96184.25;;;21.96;52.30
50977;BME280;36992;48.200;12.418;2023-07-02T03:52:31;96181.88;;;21.94;53.31
50977;BME280;36992;48.200;12.418;2023-07-02T03:54:59;96195.59;;;21.94;53.29
50977;BME280;36992;48.200;12.418;2023-07-02T03:57:25;96197.53;;;21.90;52.57
50977;BME280;36992;48.200;12.418;2023-07-02T03:59:53;96202.59;;;21.88;53.54
50977;BME280;36992;48.200;12.418;2023-07-02T04:02:19;96217.81;;;21.82;54.22
50977;BME280;36992;48.200;12.418;2023-07-02T04:04:46;96234.22;;;21.78;54.38
50977;BME280;36992;48.200;12.418;2023-07-02T04:07:12;96243.59;;;21.74;54.66
50977;BME280;36992;48.200;12.418;2023-07-02T04:09:38;96238.00;;;21.63;55.25
50977;BME280;36992;48.200;12.418;2023-07-02T04:12:07;96238.72;;;21.60;53.20
50977;BME280;36992;48.200;12.418;2023-07-02T04:14:34;96244.94;;;21.53;53.66
50977;BME280;36992;48.200;12.418;2023-07-02T04:17:01;96242.56;;;21.51;54.20
50977;BME280;36992;48.200;12.418;2023-07-02T04:19:29;96248.41;;;21.50;53.92
50977;BME280;36992;48.200;12.418;2023-07-02T04:21:56;96242.53;;;21.48;53.53
50977;BME280;36992;48.200;12.418;2023-07-02T04:24:22;96252.31;;;21.49;53.76
50977;BME280;36992;48.200;12.418;2023-07-02T04:26:48;96256.63;;;21.50;53.50
50977;BME280;36992;48.200;12.418;2023-07-02T04:29:16;96260.94;;;21.51;53.38
50977;BME280;36992;48.200;12.418;2023-07-02T04:31:43;96263.69;;;21.51;53.56
50977;BME280;36992;48.200;12.418;2023-07-02T04:34:09;96269.16;;;21.51;53.72
50977;BME280;36992;48.200;12.418;2023-07-02T04:36:36;96268.41;;;21.50;53.26
50977;BME280;36992;48.200;12.418;2023-07-02T04:39:02;96275.09;;;21.53;52.77
50977;BME280;36992;48.200;12.418;2023-07-02T04:41:29;96279.34;;;21.50;52.86
50977;BME280;36992;48.200;12.418;2023-07-02T04:43:55;96278.19;;;21.51;52.39
50977;BME280;36992;48.200;12.418;2023-07-02T04:46:23;96282.88;;;21.51;52.09
50977;BME280;36992;48.200;12.418;2023-07-02T04:48:50;96276.97;;;21.49;52.03
50977;BME280;36992;48.200;12.418;2023-07-02T04:51:16;96276.94;;;21.45;52.05
50977;BME280;36992;48.200;12.418;2023-07-02T04:53:43;96280.84;;;21.44;50.71
50977;BME280;36992;48.200;12.418;2023-07-02T04:56:09;96286.69;;;21.42;50.15
50977;BME280;36992;48.200;12.418;2023-07-02T04:58:36;96289.81;;;21.41;50.84
50977;BME280;36992;48.200;12.418;2023-07-02T05:01:02;96281.59;;;21.41;50.18
50977;BME280;36992;48.200;12.418;2023-07-02T05:03:31;96279.28;;;21.43;50.25
50977;BME280;36992;48.200;12.418;2023-07-02T05:05:57;96294.09;;;21.38;50.06
50977;BME280;36992;48.200;12.418;2023-07-02T05:08:24;96287.03;;;21.37;48.78
50977;BME280;36992;48.200;12.418;2023-07-02T05:10:50;96290.13;;;21.36;48.47
50977;BME280;36992;48.200;12.418;2023-07-02T05:13:17;96285.41;;;21.33;48.89
50977;BME280;36992;48.200;12.418;2023-07-02T05:15:43;96285.00;;;21.31;48.90
50977;BME280;36992;48.200;12.418;2023-07-02T05:18:10;96293.59;;;21.29;49.62
50977;BME280;36992;48.200;12.418;2023-07-02T05:20:38;96297.50;;;21.28;48.87
50977;BME280;36992;48.200;12.418;2023-07-02T05:23:04;96291.59;;;21.26;49.68
50977;BME280;36992;48.200;12.418;2023-07-02T05:25:30;96293.56;;;21.25;50.12
50977;BME280;36992;48.200;12.418;2023-07-02T05:27:57;96295.50;;;21.25;50.46
50977;BME280;36992;48.200;12.418;2023-07-02T05:30:24;96285.69;;;21.24;50.38
50977;BME280;36992;48.200;12.418;2023-07-02T05:32:50;96300.97;;;21.25;50.03
50977;BME280;36992;48.200;12.418;2023-07-02T05:35:17;96308.03;;;21.26;50.63
50977;BME280;36992;48.200;12.418;2023-07-02T05:37:45;96304.56;;;21.29;50.81
50977;BME280;36992;48.200;12.418;2023-07-02T05:40:11;96299.44;;;21.27;50.65
50977;BME280;36992;48.200;12.418;2023-07-02T05:42:38;96297.50;;;21.28;50.19
50977;BME280;36992;48.200;12.418;2023-07-02T05:45:05;96297.50;;;21.28;50.31
50977;BME280;36992;48.200;12.418;2023-07-02T05:47:31;96300.25;;;21.28;50.52
50977;BME280;36992;48.200;12.418;2023-07-02T05:49:58;96301.78;;;21.25;50.75
50977;BME280;36992;48.200;12.418;2023-07-02T05:52:24;96302.94;;;21.24;50.61
50977;BME280;36992;48.200;12.418;2023-07-02T05:54:52;96306.03;;;21.23;49.95
50977;BME280;36992;48.200;12.418;2023-07-02T05:57:18;96305.63;;;21.21;50.51
50977;BME280;36992;48.200;12.418;2023-07-02T05:59:45;96314.59;;;21.18;50.28
50977;BME280;36992;48.200;12.418;2023-07-02T06:02:11;96329.03;;;21.14;50.14
50977;BME280;36992;48.200;12.418;2023-07-02T06:04:38;96327.81;;;21.12;50.90
50977;BME280;36992;48.200;12.418;2023-07-02T06:07:04;96328.19;;;21.10;50.38
50977;BME280;36992;48.200;12.418;2023-07-02T06:09:31;96337.56;;;21.09;50.24
50977;BME280;36992;48.200;12.418;2023-07-02T06:11:59;96346.13;;;21.08;50.42
50977;BME280;36992;48.200;12.418;2023-07-02T06:14:25;96351.16;;;21.02;50.47
50977;BME280;36992;48.200;12.418;2023-07-02T06:16:52;96360.09;;;20.99;50.56
50977;BME280;36992;48.200;12.418;2023-07-02T06:19:20;96360.84;;;20.96;50.86
50977;BME280;36992;48.200;12.418;2023-07-02T06:21:47;96355.75;;;20.94;51.08
50977;BME280;36992;48.200;12.418;2023-07-02T06:24:13;96348.69;;;20.93;51.04
50977;BME280;36992;48.200;12.418;2023-07-02T06:26:40;96351.78;;;20.92;51.70
50977;BME280;36992;48.200;12.418;2023-07-02T06:29:08;96344.34;;;20.92;51.66
50977;BME280;36992;48.200;12.418;2023-07-02T06:31:34;96346.31;;;20.92;51.15
50977;BME280;36992;48.200;12.418;2023-07-02T06:34:00;96350.22;;;20.91;51.69
50977;BME280;36992;48.200;12.418;2023-07-02T06:36:27;96338.47;;;20.90;51.44
50977;BME280;36992;48.200;12.418;2023-07-02T06:38:53;96343.16;;;20.89;51.54
50977;BME280;36992;48.200;12.418;2023-07-02T06:41:20;96338.81;;;20.88;51.41
50977;BME280;36992;48.200;12.418;2023-07-02T06:43:46;96346.63;;;20.86;51.89
50977;BME280;36992;48.200;12.418;2023-07-02T06:46:14;96352.50;;;20.88;51.28
50977;BME280;36992;48.200;12.418;2023-07-02T06:48:41;96339.13;;;20.83;51.18
50977;BME280;36992;48.200;12.418;2023-07-02T06:51:07;96341.88;;;20.83;51.65
50977;BME280;36992;48.200;12.418;2023-07-02T06:53:34;96353.59;;;20.84;50.54
50977;BME280;36992;48.200;12.418;2023-07-02T06:56:00;96352.03;;;20.83;50.46
50977;BME280;36992;48.200;12.418;2023-07-02T06:58:27;96350.44;;;20.82;50.88
50977;BME280;36992;48.200;12.418;2023-07-02T07:00:53;96350.81;;;20.80;51.16
50977;BME280;36992;48.200;12.418;2023-07-02T07:03:21;96351.63;;;20.81;51.00
50977;BME280;36992;48.200;12.418;2023-07-02T07:05:48;96348.88;;;20.81;51.05
50977;BME280;36992;48.200;12.418;2023-07-02T07:08:15;96359.81;;;20.81;51.28
50977;BME280;36992;48.200;12.418;2023-07-02T07:10:41;96364.50;;;20.80;50.88
50977;BME280;36992;48.200;12.418;2023-07-02T07:13:09;96369.97;;;20.80;50.49
50977;BME280;36992;48.200;12.418;2023-07-02T07:15:36;96376.97;;;20.78;50.86
50977;BME280;36992;48.200;12.418;2023-07-02T07:18:03;96374.19;;;20.74;50.50
50977;BME280;36992;48.200;12.418;2023-07-02T07:20:31;96373.00;;;20.75;50.84
50977;BME280;36992;48.200;12.418;2023-07-02T07:22:57;96383.13;;;20.71;50.80
50977;BME280;36992;48.200;12.418;2023-07-02T07:25:24;96375.28;;;20.69;51.73
50977;BME280;36992;48.200;12.418;2023-07-02T07:27:51;96381.91;;;20.68;51.20
50977;BME280;36992;48.200;12.418;2023-07-02T07:30:18;96383.06;;;20.67;51.42
50977;BME280;36992;48.200;12.418;2023-07-02T07:32:48;96376.81;;;20.67;51.24
50977;BME280;36992;48.200;12.418;2023-07-02T07:35:15;96381.47;;;20.66;51.14
50977;BME280;36992;48.200;12.418;2023-07-02T07:37:42;96387.75;;;20.67;51.21
50977;BME280;36992;48.200;12.418;2023-07-02T07:40:10;96387.34;;;20.65;51.51
50977;BME280;36992;48.200;12.418;2023-07-02T07:42:36;96372.84;;;20.64;51.52
50977;BME280;36992;48.200;12.418;2023-07-02T07:45:03;96383.00;;;20.63;52.25
50977;BME280;36992;48.200;12.418;2023-07-02T07:47:30;96381.88;;;20.65;52.00
50977;BME280;36992;48.200;12.418;2023-07-02T07:49:56;96380.72;;;20.66;51.57
50977;BME280;36992;48.200;12.418;2023-07-02T07:52:23;96386.59;;;20.68;51.65
50977;BME280;36992;48.200;12.418;2023-07-02T07:54:51;96388.59;;;20.71;51.64
50977;BME280;36992;48.200;12.418;2023-07-02T07:57:18;96392.88;;;20.68;51.48
50977;BME280;36992;48.200;12.418;2023-07-02T07:59:44;96403.00;;;20.68;51.74
50977;BME280;36992;48.200;12.418;2023-07-02T08:02:10;96400.63;;;20.66;51.98
50977;BME280;36992;48.200;12.418;2023-07-02T08:04:37;96401.78;;;20.65;52.98
50977;BME280;36992;48.200;12.418;2023-07-02T08:07:04;96410.38;;;20.63;52.90
50977;BME280;36992;48.200;12.418;2023-07-02T08:09:31;96405.69;;;20.64;53.41
50977;BME280;36992;48.200;12.418;2023-07-02T08:11:59;96408.44;;;20.64;53.36
50977;BME280;36992;48.200;12.418;2023-07-02T08:14:26;96409.94;;;20.61;53.52
50977;BME280;36992;48.200;12.418;2023-07-02T08:16:52;96404.47;;;20.61;53.36
50977;BME280;36992;48.200;12.418;2023-07-02T08:19:19;96410.31;;;20.60;53.04
50977;BME280;36992;48.200;12.418;2023-07-02T08:21:46;96413.84;;;20.60;53.57
50977;BME280;36992;48.200;12.418;2023-07-02T08:24:12;96416.56;;;20.60;53.40
50977;BME280;36992;48.200;12.418;2023-07-02T08:26:39;96409.53;;;20.59;54.31
50977;BME280;36992;48.200;12.418;2023-07-02T08:29:07;96413.84;;;20.60;54.02
50977;BME280;36992;48.200;12.418;2023-07-02T08:31:33;96422.78;;;20.57;54.76
50977;BME280;36992;48.200;12.418;2023-07-02T08:34:00;96416.88;;;20.55;54.23
50977;BME280;36992;48.200;12.418;2023-07-02T08:36:26;96427.41;;;20.53;53.99
50977;BME280;36992;48.200;12.418;2023-07-02T08:38:53;96428.56;;;20.52;54.87
50977;BME280;36992;48.200;12.418;2023-07-02T08:41:20;96424.22;;;20.51;54.11
50977;BME280;36992;48.200;12.418;2023-07-02T08:43:47;96429.69;;;20.51;54.14
50977;BME280;36992;48.200;12.418;2023-07-02T08:46:16;96431.72;;;20.54;55.12
50977;BME280;36992;48.200;12.418;2023-07-02T08:48:43;96430.50;;;20.52;54.99
50977;BME280;36992;48.200;12.418;2023-07-02T08:51:10;96435.97;;;20.52;55.46
50977;BME280;36992;48.200;12.418;2023-07-02T08:53:36;96420.34;;;20.52;54.79
50977;BME280;36992;48.200;12.418;2023-07-02T08:56:03;96419.56;;;20.52;55.58
50977;BME280;36992;48.200;12.418;2023-07-02T08:58:30;96430.91;;;20.54;55.82
50977;BME280;36992;48.200;12.418;2023-07-02T09:01:07;96416.56;;;20.60;53.63
50977;BME280;36992;48.200;12.418;2023-07-02T09:03:35;96421.63;;;20.58;55.25
50977;BME280;36992;48.200;12.418;2023-07-02T09:06:03;96428.28;;;20.61;54.68
50977;BME280;36992;48.200;12.418;2023-07-02T09:08:30;96429.91;;;20.62;55.90
50977;BME280;36992;48.200;12.418;2023-07-02T09:11:06;96427.63;;;20.68;55.53
50977;BME280;36992;48.200;12.418;2023-07-02T09:13:42;96429.22;;;20.69;53.95
50977;BME280;36992;48.200;12.418;2023-07-02T09:16:08;96433.84;;;20.65;55.19
50977;BME280;36992;48.200;12.418;2023-07-02T09:18:36;96437.00;;;20.67;53.92
50977;BME280;36992;48.200;12.418;2023-07-02T09:21:03;96444.06;;;20.68;55.10
50977;BME280;36992;48.200;12.418;2023-07-02T09:23:34;96441.06;;;20.76;53.81
50977;BME280;36992;48.200;12.418;2023-07-02T09:26:01;96443.75;;;20.73;54.63
50977;BME280;36992;48.200;12.418;2023-07-02T09:28:28;96441.03;;;20.73;53.91
50977;BME280;36992;48.200;12.418;2023-07-02T09:30:55;96451.16;;;20.72;55.24
50977;BME280;36992;48.200;12.418;2023-07-02T09:33:23;96452.31;;;20.71;54.75
50977;BME280;36992;48.200;12.418;2023-07-02T09:35:51;96448.81;;;20.71;54.27
50977;BME280;36992;48.200;12.418;2023-07-02T09:38:19;96449.88;;;20.66;55.36
50977;BME280;36992;48.200;12.418;2023-07-02T09:40:47;96461.22;;;20.65;55.06
50977;BME280;36992;48.200;12.418;2023-07-02T09:43:14;96460.34;;;20.60;55.06
50977;BME280;36992;48.200;12.418;2023-07-02T09:45:43;96460.72;;;20.59;54.51
50977;BME280;36992;48.200;12.418;2023-07-02T09:48:12;96457.97;;;20.59;55.23
50977;BME280;36992;48.200;12.418;2023-07-02T09:50:40;96457.13;;;20.55;54.28
50977;BME280;36992;48.200;12.418;2023-07-02T09:53:08;96460.25;;;20.53;55.16
50977;BME280;36992;48.200;12.418;2023-07-02T09:55:35;96466.41;;;20.50;54.77
50977;BME280;36992;48.200;12.418;2023-07-02T09:58:02;96460.94;;;20.50;55.03
50977;BME280;36992;48.200;12.418;2023-07-02T10:00:28;96464.84;;;20.49;54.88
50977;BME280;36992;48.200;12.418;2023-07-02T10:02:54;96447.63;;;20.48;55.77
50977;BME280;36992;48.200;12.418;2023-07-02T10:05:28;96453.97;;;20.53;53.81
50977;BME280;36992;48.200;12.418;2023-07-02T10:07:56;96456.63;;;20.49;54.49
50977;BME280;36992;48.200;12.418;2023-07-02T10:10:28;96457.84;;;20.52;54.17
50977;BME280;36992;48.200;12.418;2023-07-02T10:12:55;96458.56;;;20.48;54.15
50977;BME280;36992;48.200;12.418;2023-07-02T10:15:26;96455.94;;;20.52;54.68
50977;BME280;36992;48.200;12.418;2023-07-02T10:17:56;96459.44;;;20.53;53.68
50977;BME280;36992;48.200;12.418;2023-07-02T10:20:34;96467.28;;;20.54;54.16
50977;BME280;36992;48.200;12.418;2023-07-02T10:23:01;96459.38;;;20.49;54.78
50977;BME280;36992;48.200;12.418;2023-07-02T10:25:30;96465.72;;;20.53;53.62
50977;BME280;36992;48.200;12.418;2023-07-02T10:27:58;96462.53;;;20.51;53.69
50977;BME280;36992;48.200;12.418;2023-07-02T10:30:31;96464.13;;;20.52;53.69
50977;BME280;36992;48.200;12.418;2023-07-02T10:33:07;96468.06;;;20.55;53.84
50977;BME280;36992;48.200;12.418;2023-07-02T10:35:34;96469.16;;;20.50;54.12
50977;BME280;36992;48.200;12.418;2023-07-02T10:38:01;96469.59;;;20.52;54.08
50977;BME280;36992;48.200;12.418;2023-07-02T10:40:29;96459.44;;;20.53;54.14
50977;BME280;36992;48.200;12.418;2023-07-02T10:42:56;96461.06;;;20.57;53.58
50977;BME280;36992;48.200;12.418;2023-07-02T10:45:31;96465.94;;;20.68;53.50
50977;BME280;36992;48.200;12.418;2023-07-02T10:47:59;96463.22;;;20.68;53.99
50977;BME280;36992;48.200;12.418;2023-07-02T10:50:26;96453.13;;;20.72;54.31
50977;BME280;36992;48.200;12.418;2023-07-02T10:52:53;96462.16;;;20.76;53.46
50977;BME280;36992;48.200;12.418;2023-07-02T10:55:21;96457.56;;;20.80;53.84
50977;BME280;36992;48.200;12.418;2023-07-02T10:57:50;96463.16;;;20.87;53.80
50977;BME280;36992;48.200;12.418;2023-07-02T11:00:17;96467.47;;;20.88;53.54
50977;BME280;36992;48.200;12.418;2023-07-02T11:02:44;96467.13;;;20.90;53.94
50977;BME280;36992;48.200;12.418;2023-07-02T11:05:12;96459.72;;;20.91;52.92
50977;BME280;36992;48.200;12.418;2023-07-02T11:07:44;96468.34;;;20.93;54.22
50977;BME280;36992;48.200;12.418;2023-07-02T11:10:18;96453.94;;;20.96;53.60
50977;BME280;36992;48.200;12.418;2023-07-02T11:12:48;96453.78;;;21.12;52.93
50977;BME280;36992;48.200;12.418;2023-07-02T11:15:16;96453.59;;;21.01;53.67
50977;BME280;36992;48.200;12.418;2023-07-02T11:17:43;96447.72;;;20.99;53.56
50977;BME280;36992;48.200;12.418;2023-07-02T11:20:11;96449.28;;;21.00;52.91
50977;BME280;36992;48.200;12.418;2023-07-02T11:22:39;96447.00;;;21.02;52.93
50977;BME280;36992;48.200;12.418;2023-07-02T11:25:11;96441.63;;;21.09;55.60
50977;BME280;36992;48.200;12.418;2023-07-02T11:27:37;96447.09;;;21.09;53.72
50977;BME280;36992;48.200;12.418;2023-07-02T11:30:07;96441.72;;;21.16;53.58
50977;BME280;36992;48.200;12.418;2023-07-02T11:32:46;96438.66;;;21.22;54.02
50977;BME280;36992;48.200;12.418;2023-07-02T11:35:13;96444.59;;;21.27;54.54
50977;BME280;36992;48.200;12.418;2023-07-02T11:37:40;96434.13;;;21.33;55.15
50977;BME280;36992;48.200;12.418;2023-07-02T11:40:08;96432.63;;;21.39;54.07
50977;BME280;36992;48.200;12.418;2023-07-02T11:42:35;96426.84;;;21.45;54.91
50977;BME280;36992;48.200;12.418;2023-07-02T11:45:01;96427.31;;;21.50;54.41
50977;BME280;36992;48.200;12.418;2023-07-02T11:47:29;96416.44;;;21.58;54.89
50977;BME280;36992;48.200;12.418;2023-07-02T11:49:56;96417.34;;;21.65;55.31
50977;BME280;36992;48.200;12.418;2023-07-02T11:52:24;96422.56;;;21.74;54.03
50977;BME280;36992;48.200;12.418;2023-07-02T11:54:50;96415.19;;;21.82;54.67
50977;BME280;36992;48.200;12.418;2023-07-02T11:57:17;96420.03;;;21.92;53.41
50977;BME280;36992;48.200;12.418;2023-07-02T11:59:43;96421.66;;;22.01;53.74
50977;BME280;36992;48.200;12.418;2023-07-02T12:02:10;96416.25;;;22.08;52.86
50977;BME280;36992;48.200;12.418;2023-07-02T12:04:38;96419.50;;;22.17;53.14
50977;BME280;36992;48.200;12.418;2023-07-02T12:07:05;96420.38;;;22.25;53.69
50977;BME280;36992;48.200;12.418;2023-07-02T12:09:31;96417.28;;;22.30;53.03
50977;BME280;36992;48.200;12.418;2023-07-02T12:11:58;96419.31;;;22.37;51.74
50977;BME280;36992;48.200;12.418;2023-07-02T12:14:24;96406.81;;;22.43;51.85
50977;BME280;36992;48.200;12.418;2023-07-02T12:16:51;96407.22;;;22.45;51.47
50977;BME280;36992;48.200;12.418;2023-07-02T12:19:18;96400.25;;;22.52;50.83
50977;BME280;36992;48.200;12.418;2023-07-02T12:21:45;96399.16;;;22.60;51.56
50977;BME280;36992;48.200;12.418;2023-07-02T12:24:12;96407.78;;;22.62;50.41
50977;BME280;36992;48.200;12.418;2023-07-02T12:26:39;96397.22;;;22.68;50.52
50977;BME280;36992;48.200;12.418;2023-07-02T12:29:06;96394.94;;;22.73;50.33
50977;BME280;36992;48.200;12.418;2023-07-02T12:31:33;96387.09;;;22.75;50.69
50977;BME280;36992;48.200;12.418;2023-07-02T12:33:59;96392.66;;;22.83;50.05
50977;BME280;36992;48.200;12.418;2023-07-02T12:36:26;96393.44;;;22.83;49.59
50977;BME280;36992;48.200;12.418;2023-07-02T12:38:53;96385.25;;;22.90;48.78
50977;BME280;36992;48.200;12.418;2023-07-02T12:41:20;96382.53;;;22.94;50.02
50977;BME280;36992;48.200;12.418;2023-07-02T12:43:47;96383.34;;;22.98;48.92
50977;BME280;36992;48.200;12.418;2023-07-02T12:46:13;96377.09;;;23.01;49.52
50977;BME280;36992;48.200;12.418;2023-07-02T12:48:40;96379.06;;;23.04;48.31
50977;BME280;36992;48.200;12.418;2023-07-02T12:51:06;96378.28;;;23.08;47.75